createdAt,value
2024-02-29T00:01:04.316Z,96922.19
2024-02-29T00:03:40.947Z,96926.00
2024-02-29T00:06:08.302Z,96930.72
2024-02-29T00:08:45.308Z,96933.94
2024-02-29T00:11:18.784Z,96930.91
2024-02-29T00:13:53.680Z,96940.63
2024-02-29T00:16:23.884Z,96928.88
2024-02-29T00:18:51.496Z,96934.41
2024-02-29T00:21:19.572Z,96937.91
2024-02-29T00:23:46.746Z,96931.16
2024-02-29T00:26:15.266Z,96931.28
2024-02-29T00:28:43.051Z,96928.91
2024-02-29T00:31:10.513Z,96929.69
2024-02-29T00:33:45.630Z,96924.91
2024-02-29T00:36:30.093Z,96924.88
2024-02-29T00:39:05.873Z,96921.69
2024-02-29T00:41:40.764Z,96918.69
2024-02-29T00:44:07.836Z,96916.69
2024-02-29T00:46:35.654Z,96922.16
2024-02-29T00:49:02.612Z,96914.00
2024-02-29T00:51:29.880Z,96913.19
2024-02-29T00:53:57.312Z,96908.84
2024-02-29T00:56:24.754Z,96903.66
2024-02-29T00:58:51.887Z,96904.81
2024-02-29T01:01:18.881Z,96895.47
2024-02-29T01:03:45.918Z,96901.53
2024-02-29T01:06:12.952Z,96892.38
2024-02-29T01:08:40.548Z,96897.41
2024-02-29T01:11:10.543Z,96886.09
2024-02-29T01:13:37.941Z,96887.69
2024-02-29T01:16:04.957Z,96898.50
2024-02-29T01:18:31.895Z,96892.75
2024-02-29T01:20:59.208Z,96884.03
2024-02-29T01:23:26.693Z,96873.34
2024-02-29T01:25:53.840Z,96870.97
2024-02-29T01:28:22.235Z,96866.94
2024-02-29T01:30:50.319Z,96858.94
2024-02-29T01:33:17.545Z,96852.63
2024-02-29T01:35:45.144Z,96859.59
2024-02-29T01:38:13.947Z,96860.59
2024-02-29T01:40:40.813Z,96859.94
2024-02-29T01:43:07.850Z,96857.81
2024-02-29T01:45:34.874Z,96851.31
2024-02-29T01:48:02.523Z,96852.63
2024-02-29T01:50:29.412Z,96841.59
2024-02-29T01:52:57.287Z,96838.47
2024-02-29T01:55:24.568Z,96844.38
2024-02-29T01:57:56.005Z,96840.59
2024-02-29T02:00:23.142Z,96841.81
2024-02-29T02:02:50.078Z,96827.84
2024-02-29T02:05:17.842Z,96827.63
2024-02-29T02:07:47.310Z,96824.28
2024-02-29T02:10:14.437Z,96819.88
2024-02-29T02:12:41.716Z,96823.59
2024-02-29T02:15:10.034Z,96814.41
2024-02-29T02:17:37.319Z,96820.56
2024-02-29T02:20:04.329Z,96817.19
2024-02-29T02:22:31.650Z,96814.41
2024-02-29T02:24:58.594Z,96817.16
2024-02-29T02:27:25.569Z,96808.44
2024-02-29T02:29:52.843Z,96805.19
2024-02-29T02:32:20.126Z,96802.59
2024-02-29T02:34:47.233Z,96803.66
2024-02-29T02:37:14.315Z,96799.63
2024-02-29T02:39:41.744Z,96795.38
2024-02-29T02:42:09.074Z,96794.28
2024-02-29T02:44:36.870Z,96790.50
2024-02-29T02:47:05.306Z,96787.84
2024-02-29T02:49:33.026Z,96784.44
2024-02-29T02:52:00.996Z,96782.47
2024-02-29T02:54:30.886Z,96781.13
2024-02-29T02:56:58.210Z,96775.00
2024-02-29T02:59:25.506Z,96773.50
2024-02-29T03:01:52.818Z,96770.38
2024-02-29T03:04:20.062Z,96773.44
2024-02-29T03:06:49.173Z,96777.94
2024-02-29T03:09:16.745Z,96766.38
2024-02-29T03:11:44.137Z,96772.78
2024-02-29T03:14:11.688Z,96759.66
2024-02-29T03:16:38.852Z,96763.88
2024-02-29T03:19:06.376Z,96764.75
2024-02-29T03:21:34.044Z,96766.78
2024-02-29T03:24:02.667Z,96760.72
2024-02-29T03:26:30.362Z,96752.34
2024-02-29T03:29:00.325Z,96754.84
2024-02-29T03:31:28.298Z,96745.16
2024-02-29T03:33:55.611Z,96747.94
2024-02-29T03:36:23.010Z,96744.47
2024-02-29T03:38:50.527Z,96742.50
2024-02-29T03:41:17.693Z,96738.63
2024-02-29T03:43:46.395Z,96739.00
2024-02-29T03:46:19.786Z,96741.56
2024-02-29T03:48:47.078Z,96744.53
2024-02-29T03:51:14.229Z,96734.22
2024-02-29T03:53:41.714Z,96736.84
2024-02-29T03:56:09.017Z,96739.69
2024-02-29T03:58:39.280Z,96740.16
2024-02-29T04:01:06.534Z,96735.75
2024-02-29T04:03:34.397Z,96740.16
2024-02-29T04:06:01.755Z,96739.19
2024-02-29T04:08:29.275Z,96727.88
2024-02-29T04:10:56.929Z,96730.84
2024-02-29T04:13:25.809Z,96731.78
2024-02-29T04:15:55.844Z,96733.06
2024-02-29T04:18:26.848Z,96728.25
2024-02-29T04:20:54.738Z,96729.06
2024-02-29T04:23:24.809Z,96722.53
2024-02-29T04:25:51.679Z,96719.66
2024-02-29T04:28:23.092Z,96719.44
2024-02-29T04:30:50.374Z,96716.94
2024-02-29T04:33:17.424Z,96716.59
2024-02-29T04:35:44.673Z,96714.56
2024-02-29T04:38:11.947Z,96710.03
2024-02-29T04:40:39.024Z,96705.19
2024-02-29T04:43:06.282Z,96698.47
2024-02-29T04:45:33.366Z,96698.94
2024-02-29T04:48:00.439Z,96702.13
2024-02-29T04:50:27.692Z,96707.13
2024-02-29T04:52:54.593Z,96695.72
2024-02-29T04:55:21.562Z,96694.53
2024-02-29T04:57:50.646Z,96696.97
2024-02-29T05:00:18.056Z,96696.75
2024-02-29T05:02:45.078Z,96690.16
2024-02-29T05:05:12.359Z,96685.16
2024-02-29T05:07:42.490Z,96688.22
2024-02-29T05:10:09.741Z,96684.84
2024-02-29T05:12:36.805Z,96685.53
2024-02-29T05:15:03.829Z,96683.59
2024-02-29T05:17:30.957Z,96676.53
2024-02-29T05:19:57.970Z,96680.03
2024-02-29T05:22:24.908Z,96681.50
2024-02-29T05:24:52.283Z,96678.94
2024-02-29T05:27:20.891Z,96672.97
2024-02-29T05:29:51.653Z,96675.50
2024-02-29T05:32:20.200Z,96667.84
2024-02-29T05:34:47.096Z,96669.63
2024-02-29T05:37:16.576Z,96667.16
2024-02-29T05:39:43.526Z,96666.28
2024-02-29T05:42:10.933Z,96669.53
2024-02-29T05:44:38.108Z,96666.91
2024-02-29T05:47:05.083Z,96666.88
2024-02-29T05:49:32.249Z,96658.19
2024-02-29T05:51:59.249Z,96659.75
2024-02-29T05:54:26.496Z,96655.13
2024-02-29T05:56:53.855Z,96646.53
2024-02-29T05:59:25.777Z,96658.16
2024-02-29T06:01:53.504Z,96653.19
2024-02-29T06:04:20.607Z,96645.38
2024-02-29T06:06:47.816Z,96645.88
2024-02-29T06:09:14.706Z,96647.25
2024-02-29T06:11:42.001Z,96642.47
2024-02-29T06:14:09.048Z,96649.03
2024-02-29T06:16:36.379Z,96642.22
2024-02-29T06:19:03.510Z,96646.59
2024-02-29T06:21:30.804Z,96651.25
2024-02-29T06:23:57.870Z,96643.19
2024-02-29T06:26:24.904Z,96643.56
2024-02-29T06:28:52.993Z,96638.56
2024-02-29T06:31:20.196Z,96636.41
2024-02-29T06:33:48.588Z,96636.66
2024-02-29T06:36:15.743Z,96645.66
2024-02-29T06:38:43.064Z,96639.97
2024-02-29T06:41:10.908Z,96636.44
2024-02-29T06:43:38.712Z,96635.59
2024-02-29T06:46:06.015Z,96625.13
2024-02-29T06:48:33.476Z,96629.56
2024-02-29T06:51:02.028Z,96634.22
2024-02-29T06:53:29.838Z,96639.75
2024-02-29T06:55:57.436Z,96633.44
2024-02-29T06:58:24.805Z,96629.63
2024-02-29T07:00:52.399Z,96637.63
2024-02-29T07:03:20.423Z,96634.44
2024-02-29T07:05:48.315Z,96634.72
2024-02-29T07:08:15.982Z,96636.25
2024-02-29T07:10:43.338Z,96623.88
2024-02-29T07:13:11.366Z,96622.28
2024-02-29T07:15:41.594Z,96625.63
2024-02-29T07:18:09.115Z,96627.81
2024-02-29T07:20:36.714Z,96621.75
2024-02-29T07:23:05.260Z,96621.16
2024-02-29T07:25:32.905Z,96627.16
2024-02-29T07:28:00.177Z,96625.19
2024-02-29T07:30:27.702Z,96616.25
2024-02-29T07:32:55.139Z,96624.44
2024-02-29T07:35:23.750Z,96627.00
2024-02-29T07:37:53.828Z,96614.97
2024-02-29T07:40:22.481Z,96614.22
2024-02-29T07:42:50.401Z,96613.09
2024-02-29T07:45:20.462Z,96604.56
2024-02-29T07:47:48.961Z,96609.16
2024-02-29T07:50:16.335Z,96606.91
2024-02-29T07:52:43.846Z,96603.44
2024-02-29T07:55:12.025Z,96599.13
2024-02-29T07:57:39.497Z,96599.91
2024-02-29T08:00:06.980Z,96601.97
2024-02-29T08:02:34.772Z,96596.88
2024-02-29T08:05:01.861Z,96610.47
2024-02-29T08:07:29.448Z,96613.00
2024-02-29T08:09:57.414Z,96603.88
2024-02-29T08:12:31.809Z,96603.59
2024-02-29T08:15:07.285Z,96602.47
2024-02-29T08:17:34.263Z,96594.59
2024-02-29T08:20:01.331Z,96605.19
2024-02-29T08:22:28.655Z,96601.69
2024-02-29T08:24:55.871Z,96600.13
2024-02-29T08:27:23.187Z,96598.94
2024-02-29T08:29:50.291Z,96596.56
2024-02-29T08:32:17.368Z,96593.06
2024-02-29T08:34:44.723Z,96588.28
2024-02-29T08:37:12.035Z,96595.81
2024-02-29T08:39:39.306Z,96587.41
2024-02-29T08:42:06.822Z,96587.44
2024-02-29T08:44:33.883Z,96586.25
2024-02-29T08:47:01.520Z,96586.00
2024-02-29T08:49:29.095Z,96588.38
2024-02-29T08:51:56.394Z,96586.41
2024-02-29T08:54:23.283Z,96587.59
2024-02-29T08:56:50.370Z,96584.44
2024-02-29T08:59:18.816Z,96587.19
2024-02-29T09:01:46.295Z,96585.66
2024-02-29T09:04:13.629Z,96584.84
2024-02-29T09:06:42.062Z,96584.44
2024-02-29T09:09:09.914Z,96572.66
2024-02-29T09:11:37.216Z,96570.72
2024-02-29T09:14:04.769Z,96566.78
2024-02-29T09:16:32.897Z,96569.53
2024-02-29T09:19:03.848Z,96566.78
2024-02-29T09:21:31.982Z,96564.41
2024-02-29T09:23:59.712Z,96556.91
2024-02-29T09:26:28.500Z,96557.28
2024-02-29T09:28:55.829Z,96561.94
2024-02-29T09:31:23.359Z,96558.06
2024-02-29T09:33:50.816Z,96554.13
2024-02-29T09:36:18.589Z,96549.28
2024-02-29T09:38:46.028Z,96544.94
2024-02-29T09:43:45.524Z,96548.63
2024-02-29T09:46:14.207Z,96542.28
2024-02-29T09:48:41.530Z,96535.66
2024-02-29T09:51:09.209Z,96544.41
2024-02-29T09:53:36.564Z,96533.72
2024-02-29T09:56:03.829Z,96532.59
2024-02-29T09:58:30.962Z,96524.78
2024-02-29T10:00:58.717Z,96520.38
2024-02-29T10:03:26.176Z,96516.81
2024-02-29T10:05:55.116Z,96516.06
2024-02-29T10:08:22.474Z,96511.41
2024-02-29T10:10:51.556Z,96507.84
2024-02-29T10:13:20.212Z,96506.34
2024-02-29T10:15:48.180Z,96493.34
2024-02-29T10:18:16.226Z,96498.03
2024-02-29T10:20:44.475Z,96497.56
2024-02-29T10:23:11.777Z,96495.19
2024-02-29T10:25:39.364Z,96479.53
2024-02-29T10:28:06.957Z,96481.94
2024-02-29T10:30:38.688Z,96489.84
2024-02-29T10:33:05.941Z,96483.09
2024-02-29T10:35:33.132Z,96470.06
2024-02-29T10:38:01.120Z,96475.66
2024-02-29T10:40:28.706Z,96467.78
2024-02-29T10:42:56.749Z,96463.50
2024-02-29T10:45:26.849Z,96459.53
2024-02-29T10:47:54.653Z,96444.59
2024-02-29T10:50:22.319Z,96448.16
2024-02-29T10:52:49.925Z,96441.44
2024-02-29T10:55:17.074Z,96453.75
2024-02-29T10:57:44.693Z,96443.81
2024-02-29T11:00:11.973Z,96446.25
2024-02-29T11:02:39.780Z,96439.63
2024-02-29T11:05:07.004Z,96435.31
2024-02-29T11:07:35.386Z,96425.41
2024-02-29T11:10:02.998Z,96421.16
2024-02-29T11:12:30.410Z,96425.88
2024-02-29T11:14:58.081Z,96415.69
2024-02-29T11:17:25.385Z,96407.81
2024-02-29T11:19:57.380Z,96408.28
2024-02-29T11:22:25.094Z,96404.69
2024-02-29T11:24:52.404Z,96400.38
2024-02-29T11:27:19.706Z,96405.03
2024-02-29T11:29:47.348Z,96403.16
2024-02-29T11:32:15.088Z,96400.78
2024-02-29T11:34:42.337Z,96392.06
2024-02-29T11:37:09.737Z,96388.97
2024-02-29T11:39:37.039Z,96387.81
2024-02-29T11:42:04.757Z,96383.50
2024-02-29T11:44:31.960Z,96381.94
2024-02-29T11:46:59.441Z,96377.63
2024-02-29T11:49:26.920Z,96369.41
2024-02-29T11:51:54.410Z,96373.72
2024-02-29T11:54:24.202Z,96360.72
2024-02-29T11:56:53.134Z,96343.84
2024-02-29T11:59:20.512Z,96346.97
2024-02-29T12:01:50.545Z,96343.09
2024-02-29T12:04:17.981Z,96330.50
2024-02-29T12:06:45.534Z,96329.78
2024-02-29T12:09:12.636Z,96329.41
2024-02-29T12:11:40.200Z,96318.78
2024-02-29T12:14:07.441Z,96322.28
2024-02-29T12:16:34.684Z,96312.88
2024-02-29T12:19:02.086Z,96306.53
2024-02-29T12:21:29.348Z,96308.09
2024-02-29T12:23:56.573Z,96297.16
2024-02-29T12:26:23.562Z,96296.72
2024-02-29T12:28:50.561Z,96293.97
2024-02-29T12:31:17.595Z,96294.38
2024-02-29T12:33:44.902Z,96283.91
2024-02-29T12:36:12.332Z,96279.94
2024-02-29T12:38:39.337Z,96283.13
2024-02-29T12:41:06.802Z,96270.97
2024-02-29T12:43:33.749Z,96271.34
2024-02-29T12:46:00.830Z,96268.97
2024-02-29T12:48:28.088Z,96256.69
2024-02-29T12:50:56.132Z,96250.84
2024-02-29T12:53:23.505Z,96242.94
2024-02-29T12:55:50.738Z,96237.06
2024-02-29T12:58:17.973Z,96239.03
2024-02-29T13:00:46.052Z,96233.56
2024-02-29T13:03:13.431Z,96226.09
2024-02-29T13:05:41.282Z,96220.91
2024-02-29T13:08:09.274Z,96209.88
2024-02-29T13:10:37.058Z,96205.38
2024-02-29T13:13:10.116Z,96202.28
2024-02-29T13:15:38.407Z,96203.72
2024-02-29T13:18:05.822Z,96205.22
2024-02-29T13:20:33.115Z,96201.56
2024-02-29T13:23:00.545Z,96182.50
2024-02-29T13:25:28.631Z,96185.94
2024-02-29T13:27:57.311Z,96181.22
2024-02-29T13:30:27.779Z,96174.00
2024-02-29T13:32:55.308Z,96163.81
2024-02-29T13:35:22.947Z,96155.69
2024-02-29T13:37:50.133Z,96158.97
2024-02-29T13:40:17.728Z,96143.06
2024-02-29T13:42:45.851Z,96150.84
2024-02-29T13:45:13.388Z,96141.84
2024-02-29T13:47:40.825Z,96137.72
2024-02-29T13:50:08.324Z,96137.50
2024-02-29T13:52:35.786Z,96127.03
2024-02-29T13:55:03.085Z,96123.16
2024-02-29T13:57:30.836Z,96125.75
2024-02-29T13:59:58.474Z,96124.63
2024-02-29T14:02:26.492Z,96123.66
2024-02-29T14:04:54.039Z,96125.44
2024-02-29T14:07:21.764Z,96123.00
2024-02-29T14:09:49.071Z,96114.06
2024-02-29T14:12:17.272Z,96112.38
2024-02-29T14:14:44.500Z,96111.94
2024-02-29T14:17:12.216Z,96106.03
2024-02-29T14:19:39.329Z,96108.88
2024-02-29T14:22:06.735Z,96104.59
2024-02-29T14:24:34.240Z,96092.97
2024-02-29T14:27:01.775Z,96092.91
2024-02-29T14:29:31.259Z,96088.81
2024-02-29T14:31:58.952Z,96076.66
2024-02-29T14:34:26.131Z,96070.28
2024-02-29T14:36:53.251Z,96077.19
2024-02-29T14:39:20.391Z,96068.44
2024-02-29T14:41:48.250Z,96065.34
2024-02-29T14:44:15.901Z,96063.28
2024-02-29T14:46:42.935Z,96056.06
2024-02-29T14:49:11.912Z,96052.50
2024-02-29T14:51:39.403Z,96051.28
2024-02-29T14:54:06.638Z,96045.03
2024-02-29T14:56:33.786Z,96045.19
2024-02-29T14:59:00.691Z,96044.50
2024-02-29T15:01:27.726Z,96038.13
2024-02-29T15:03:55.597Z,96041.72
2024-02-29T15:06:23.212Z,96035.63
2024-02-29T15:08:51.018Z,96039.25
2024-02-29T15:11:18.134Z,96031.13
2024-02-29T15:13:45.470Z,96030.84
2024-02-29T15:16:12.596Z,96028.56
2024-02-29T15:18:39.797Z,96022.56
2024-02-29T15:21:07.438Z,96024.06
2024-02-29T15:23:34.940Z,96019.59
2024-02-29T15:26:03.268Z,96021.75
2024-02-29T15:28:30.861Z,96014.63
2024-02-29T15:30:58.431Z,96016.41
2024-02-29T15:33:26.029Z,96008.88
2024-02-29T15:35:53.607Z,96005.91
2024-02-29T15:38:21.161Z,96005.31
2024-02-29T15:40:48.546Z,96011.81
2024-02-29T15:43:16.221Z,96005.28
2024-02-29T15:45:43.699Z,95998.28
2024-02-29T15:48:12.294Z,96009.50
2024-02-29T15:50:40.409Z,96003.59
2024-02-29T15:53:07.648Z,95992.91
2024-02-29T15:55:35.810Z,95995.16
2024-02-29T15:58:03.620Z,95995.44
2024-02-29T16:00:31.121Z,95987.84
2024-02-29T16:02:58.744Z,95990.00
2024-02-29T16:05:26.322Z,95981.31
2024-02-29T16:07:55.781Z,95981.19
2024-02-29T16:10:23.547Z,95972.47
2024-02-29T16:12:51.177Z,95981.00
2024-02-29T16:15:19.751Z,95975.47
2024-02-29T16:17:47.023Z,95976.31
2024-02-29T16:20:14.848Z,95972.03
2024-02-29T16:22:42.506Z,95962.91
2024-02-29T16:25:10.091Z,95965.47
2024-02-29T16:27:38.168Z,95972.34
2024-02-29T16:30:05.988Z,95965.91
2024-02-29T16:32:33.496Z,95957.00
2024-02-29T16:35:00.619Z,95945.91
2024-02-29T16:37:27.867Z,95957.78
2024-02-29T16:39:55.155Z,95955.13
2024-02-29T16:42:22.918Z,95968.06
2024-02-29T16:44:51.392Z,95963.38
2024-02-29T16:47:19.068Z,95957.91
2024-02-29T16:49:46.479Z,95951.66
2024-02-29T16:52:14.089Z,95959.47
2024-02-29T16:54:41.189Z,95951.91
2024-02-29T16:57:08.255Z,95950.25
2024-02-29T16:59:35.286Z,95946.03
2024-02-29T17:02:02.352Z,95948.38
2024-02-29T17:04:29.786Z,95950.69
2024-02-29T17:06:56.809Z,95943.25
2024-02-29T17:09:24.251Z,95946.03
2024-02-29T17:11:51.641Z,95940.56
2024-02-29T17:14:18.609Z,95950.06
2024-02-29T17:16:45.702Z,95948.03
2024-02-29T17:19:12.670Z,95947.31
2024-02-29T17:21:41.721Z,95948.44
2024-02-29T17:24:09.633Z,95946.94
2024-02-29T17:26:36.635Z,95951.69
2024-02-29T17:29:03.741Z,95948.53
2024-02-29T17:31:30.943Z,95955.94
2024-02-29T17:33:58.002Z,95949.69
2024-02-29T17:36:24.882Z,95955.56
2024-02-29T17:38:51.807Z,95956.28
2024-02-29T17:41:18.799Z,95956.69
2024-02-29T17:43:46.142Z,95958.28
2024-02-29T17:46:13.243Z,95950.31
2024-02-29T17:48:41.155Z,95956.94
2024-02-29T17:51:08.570Z,95951.19
2024-02-29T17:53:35.667Z,95952.38
2024-02-29T17:56:03.048Z,95947.31
2024-02-29T17:58:30.028Z,95950.06
2024-02-29T18:00:57.153Z,95941.88
2024-02-29T18:03:24.123Z,95952.44
2024-02-29T18:05:51.476Z,95945.41
2024-02-29T18:08:18.802Z,95940.34
2024-02-29T18:10:45.914Z,95939.56
2024-02-29T18:13:13.001Z,95949.72
2024-02-29T18:15:40.336Z,95943.47
2024-02-29T18:18:07.701Z,95938.38
2024-02-29T18:20:35.057Z,95942.28
2024-02-29T18:23:02.225Z,95941.13
2024-02-29T18:25:29.499Z,95949.72
2024-02-29T18:27:56.515Z,95945.06
2024-02-29T18:30:23.528Z,95943.06
2024-02-29T18:32:50.635Z,95946.75
2024-02-29T18:35:23.589Z,95936.06
2024-02-29T18:37:53.583Z,95940.72
2024-02-29T18:40:21.031Z,95943.47
2024-02-29T18:42:48.602Z,95938.41
2024-02-29T18:45:15.738Z,95943.47
2024-02-29T18:47:42.667Z,95937.59
2024-02-29T18:50:12.211Z,95936.00
2024-02-29T18:52:41.272Z,95935.19
2024-02-29T18:55:08.604Z,95936.75
2024-02-29T18:57:36.439Z,95937.50
2024-02-29T19:00:03.649Z,95931.66
2024-02-29T19:02:31.078Z,95932.81
2024-02-29T19:04:58.838Z,95938.28
2024-02-29T19:07:27.950Z,95932.44
2024-02-29T19:09:57.589Z,95930.88
2024-02-29T19:12:34.260Z,95928.50
2024-02-29T19:15:02.536Z,95929.28
2024-02-29T19:17:30.461Z,95927.38
2024-02-29T19:20:01.330Z,95924.63
2024-02-29T19:22:28.850Z,95928.50
2024-02-29T19:24:56.612Z,95928.13
2024-02-29T19:27:24.311Z,95930.53
2024-02-29T19:29:52.592Z,95928.13
2024-02-29T19:32:20.046Z,95933.63
2024-02-29T19:34:47.511Z,95936.38
2024-02-29T19:37:15.124Z,95930.09
2024-02-29T19:39:42.716Z,95924.59
2024-02-29T19:42:10.713Z,95925.78
2024-02-29T19:44:39.610Z,95920.28
2024-02-29T19:47:07.307Z,95921.06
2024-02-29T19:49:34.605Z,95917.16
2024-02-29T19:52:02.613Z,95920.69
2024-02-29T19:54:30.326Z,95922.25
2024-02-29T19:56:57.626Z,95933.97
2024-02-29T19:59:25.181Z,95926.97
2024-02-29T20:01:55.337Z,95927.34
2024-02-29T20:04:26.220Z,95929.78
2024-02-29T20:06:55.620Z,95930.16
2024-02-29T20:09:24.244Z,95929.78
2024-02-29T20:11:51.290Z,95927.00
2024-02-29T20:14:18.397Z,95930.50
2024-02-29T20:16:45.443Z,95932.84
2024-02-29T20:19:13.888Z,95932.09
2024-02-29T20:21:41.841Z,95928.13
2024-02-29T20:24:09.192Z,95929.31
2024-02-29T20:26:36.222Z,95925.41
2024-02-29T20:29:03.603Z,95924.66
2024-02-29T20:31:32.343Z,95923.03
2024-02-29T20:33:59.802Z,95927.78
2024-02-29T20:36:26.908Z,95926.66
2024-02-29T20:38:55.268Z,95926.66
2024-02-29T20:41:22.634Z,95917.28
2024-02-29T20:43:49.553Z,95920.81
2024-02-29T20:46:16.708Z,95918.00
2024-02-29T20:48:44.090Z,95916.81
2024-02-29T20:51:11.283Z,95922.31
2024-02-29T20:53:38.327Z,95926.59
2024-02-29T20:56:05.428Z,95919.56
2024-02-29T20:58:32.781Z,95913.31
2024-02-29T21:01:06.498Z,95918.03
2024-02-29T21:03:33.537Z,95921.19
2024-02-29T21:06:00.676Z,95911.81
2024-02-29T21:08:28.198Z,95909.47
2024-02-29T21:10:55.477Z,95911.03
2024-02-29T21:13:32.767Z,95913.34
2024-02-29T21:16:00.722Z,95913.31
2024-02-29T21:18:29.216Z,95915.25
2024-02-29T21:20:57.596Z,95914.06
2024-02-29T21:23:24.794Z,95917.16
2024-02-29T21:25:52.069Z,95914.44
2024-02-29T21:28:21.749Z,95919.13
2024-02-29T21:30:52.201Z,95920.31
2024-02-29T21:33:22.807Z,95921.88
2024-02-29T21:35:51.570Z,95916.78
2024-02-29T21:38:22.449Z,95920.31
2024-02-29T21:40:51.207Z,95914.41
2024-02-29T21:43:18.108Z,95926.94
2024-02-29T21:45:48.680Z,95919.94
2024-02-29T21:48:15.811Z,95918.38
2024-02-29T21:50:47.036Z,95922.66
2024-02-29T21:53:15.827Z,95918.75
2024-02-29T21:55:42.748Z,95918.34
2024-02-29T21:58:15.176Z,95919.13
2024-02-29T22:00:46.435Z,95917.94
2024-02-29T22:03:13.561Z,95904.25
2024-02-29T22:05:43.283Z,95905.44
2024-02-29T22:08:17.273Z,95912.13
2024-02-29T22:11:43.361Z,95901.13
2024-02-29T22:13:56.961Z,95908.94
2024-02-29T22:16:28.301Z,95912.59
2024-02-29T22:22:01.067Z,95908.22
2024-02-29T22:24:28.043Z,95909.81
2024-02-29T22:26:57.806Z,95915.63
2024-02-29T22:29:27.009Z,95910.91
2024-02-29T22:31:54.277Z,95909.34
2024-02-29T22:34:24.054Z,95907.47
2024-02-29T22:36:51.453Z,95907.81
2024-02-29T22:39:23.571Z,95909.00
2024-02-29T22:41:57.545Z,95902.31
2024-02-29T22:44:31.693Z,95910.91
2024-02-29T22:46:58.957Z,95911.31
2024-02-29T22:49:29.898Z,95913.66
2024-02-29T22:51:57.664Z,95911.31
2024-02-29T22:54:28.579Z,95911.72
2024-02-29T22:57:01.572Z,95917.19
2024-02-29T22:59:33.628Z,95915.19
2024-02-29T23:02:03.924Z,95920.72
2024-02-29T23:04:31.151Z,95917.97
2024-02-29T23:07:01.272Z,95918.41
2024-02-29T23:09:31.357Z,95923.91
2024-02-29T23:11:58.594Z,95918.81
2024-02-29T23:14:25.765Z,95918.44
2024-02-29T23:16:57.994Z,95909.84
2024-02-29T23:19:24.978Z,95913.72
2024-02-29T23:21:52.076Z,95910.50
2024-02-29T23:24:21.636Z,95908.97
2024-02-29T23:26:48.766Z,95913.38
2024-02-29T23:29:15.761Z,95917.28
2024-02-29T23:31:45.446Z,95914.91
2024-02-29T23:34:14.626Z,95914.53
2024-02-29T23:36:41.868Z,95920.00
2024-02-29T23:39:11.228Z,95911.44
2024-02-29T23:41:38.141Z,95913.00
2024-02-29T23:44:13.145Z,95909.44
2024-02-29T23:46:53.422Z,95912.16
2024-02-29T23:49:20.290Z,95910.56
2024-02-29T23:51:50.522Z,95914.47
2024-02-29T23:54:17.901Z,95910.91
2024-02-29T23:56:45.150Z,95921.41
2024-02-29T23:59:15.229Z,95918.00
